MUHG/HOG METAR and TAF weather

Enter ICAO airport designator
Station Type Date Time Source
MUHG METAR 2019/12/10 05:50 UTC NOAA

MUHG 100550Z 04006KT 9000 FEW020 23/22 Q1017


Station Type Date Time Source
MUHG Decoded METAR 2019/12/10 05:50 UTC NOAA

Holguin Civ / Mil , Cuba (MUHG) 20-47N 076-19W
Dec 10, 2019 - 12:50 AM EST / 2019.12.10 0550 UTC
Wind: from the NE (040 degrees) at 7 MPH (6 KT):0
Visibility: 5 mile(s):0
Sky conditions: mostly clear
Temperature: 73 F (23 C)
Dew Point: 71 F (22 C)
Relative Humidity: 94%
Pressure (altimeter): 30.03 in. Hg (1017 hPa)
ob: MUHG 100550Z 04006KT 9000 FEW020 23/22 Q1017
cycle: 6

Station Type Date Time Source
MUHG TAF 2019/12/10 06:03 UTC NOAA

TAF MUHG 100500Z 1006/1106 05006KT 9000 FEW020
BECMG 1015/1017 09012KT SCT020
BECMG 1101/1103 VRB03KT FEW020

Example: see airport list